Cmb Ariane — VRIT7 — position and weather

sailwx.info

Track history (hours):
 
Tides and Currents Weather Stations Pressure Air Temp Water Temp Dewpoint Dewpoint Depression Visibility Wind Speed Wind Dir Waves Ship Positions

Cmb Ariane

Last reported at 2014-Sep-03 07:18 UTC. Time now 2014-Dec-19 17:30 UTC.
Position N 29°57' W 090°00'.
Warning: this ship's position is months out of date.

Length 180 m; draft 6.3 m.

Type: Cargo ship. MMSI: 477229600.

Date/timePositionNaut miles runAvg speedWind from/ knotsBaromVisibWave heightAir tempDewpointWater temp
2014-Sep-03 07:18N 29°57' W 090°00'0 0.0
2014-Sep-03 06:33N 29°57' W 090°00'0 0.0
2014-Sep-03 05:33N 29°57' W 090°00'  
2014-Aug-31 09:33N 29°57' W 090°18'4 3.3
2014-Aug-31 08:28N 29°56' W 090°22'0 0.0
2014-Aug-31 07:28N 29°56' W 090°22'0 0.0
2014-Aug-31 06:16N 29°56' W 090°22'0 0.0
2014-Aug-31 05:31N 29°56' W 090°22'0 0.0
2014-Aug-31 04:31N 29°56' W 090°22'0 0.0
2014-Aug-31 03:28N 29°56' W 090°22'0 0.0
2014-Aug-31 02:28N 29°56' W 090°22'0 0.0
2014-Aug-31 01:22N 29°56' W 090°22'0 0.0
2014-Aug-31 00:28N 29°56' W 090°22'0 0.0
2014-Aug-30 23:16N 29°56' W 090°22'0 0.0
2014-Aug-30 22:28N 29°57' W 090°22'0 0.0
2014-Aug-30 21:28N 29°56' W 090°22'0 0.0
2014-Aug-30 20:16N 29°56' W 090°22'0 0.0
2014-Aug-30 19:22N 29°57' W 090°22'0 0.0
2014-Aug-30 18:28N 29°57' W 090°22'0 0.0
2014-Aug-30 17:22N 29°57' W 090°22'0 0.0
2014-Aug-30 16:28N 29°57' W 090°22'0 0.0
2014-Aug-30 15:28N 29°57' W 090°22'0 0.0
2014-Aug-30 14:10N 29°56' W 090°22'0 0.0
2014-Aug-30 12:04N 29°56' W 090°22'0 0.0
2014-Aug-30 11:28N 29°56' W 090°22'0 0.0
2014-Aug-30 10:28N 29°56' W 090°22'0 0.0
2014-Aug-30 09:22N 29°56' W 090°22'0 0.0
2014-Aug-30 08:10N 29°56' W 090°22'0 0.0
2014-Aug-30 07:22N 29°56' W 090°22'0 0.0
2014-Aug-30 06:22N 29°56' W 090°22'0 0.0
2014-Aug-30 05:31N 29°56' W 090°22'0 0.0
2014-Aug-30 03:28N 29°56' W 090°22'0 0.0
2014-Aug-30 02:31N 29°56' W 090°22'0 0.0
2014-Aug-30 01:22N 29°56' W 090°22'0 0.0
2014-Aug-30 00:16N 29°56' W 090°22'0 0.0
2014-Aug-29 22:16N 29°56' W 090°22'0 0.0
2014-Aug-29 21:31N 29°56' W 090°22'0 0.0
2014-Aug-29 20:31N 29°56' W 090°22'0 0.0
2014-Aug-29 19:31N 29°56' W 090°22'0 0.0
2014-Aug-29 09:28N 29°56' W 090°22'0 0.0
2014-Aug-28 22:27N 29°56' W 090°22'  
2014-Aug-25 11:12N 29°58' W 090°17'0 0.0
2014-Aug-25 06:12N 29°58' W 090°17'1 1.6
2014-Aug-25 05:33N 29°58' W 090°16'2 1.8
2014-Aug-25 04:31N 29°58' W 090°14'  
Track history (hours):
 
Tides and Currents Weather Stations Pressure Air Temp Water Temp Dewpoint Dewpoint Depression Visibility Wind Speed Wind Dir Waves Ship Positions

Cmb Ariane

Last reported at 2014-Sep-03 07:18 UTC. Time now 2014-Dec-19 17:30 UTC.
Position N 29°57' W 090°00'.
Warning: this ship's position is months out of date.

Length 180 m; draft 6.3 m.

Type: Cargo ship. MMSI: 477229600.

Date/timePositionNaut miles runAvg speedWind from/ knotsBaromVisibWave heightAir tempDewpointWater temp
2014-Sep-03 07:18N 29°57' W 090°00'0 0.0
2014-Sep-03 06:33N 29°57' W 090°00'0 0.0
2014-Sep-03 05:33N 29°57' W 090°00'  
2014-Aug-31 09:33N 29°57' W 090°18'4 3.3
2014-Aug-31 08:28N 29°56' W 090°22'0 0.0
2014-Aug-31 07:28N 29°56' W 090°22'0 0.0
2014-Aug-31 06:16N 29°56' W 090°22'0 0.0
2014-Aug-31 05:31N 29°56' W 090°22'0 0.0
2014-Aug-31 04:31N 29°56' W 090°22'0 0.0
2014-Aug-31 03:28N 29°56' W 090°22'0 0.0
2014-Aug-31 02:28N 29°56' W 090°22'0 0.0
2014-Aug-31 01:22N 29°56' W 090°22'0 0.0
2014-Aug-31 00:28N 29°56' W 090°22'0 0.0
2014-Aug-30 23:16N 29°56' W 090°22'0 0.0
2014-Aug-30 22:28N 29°57' W 090°22'0 0.0
2014-Aug-30 21:28N 29°56' W 090°22'0 0.0
2014-Aug-30 20:16N 29°56' W 090°22'0 0.0
2014-Aug-30 19:22N 29°57' W 090°22'0 0.0
2014-Aug-30 18:28N 29°57' W 090°22'0 0.0
2014-Aug-30 17:22N 29°57' W 090°22'0 0.0
2014-Aug-30 16:28N 29°57' W 090°22'0 0.0
2014-Aug-30 15:28N 29°57' W 090°22'0 0.0
2014-Aug-30 14:10N 29°56' W 090°22'0 0.0
2014-Aug-30 12:04N 29°56' W 090°22'0 0.0
2014-Aug-30 11:28N 29°56' W 090°22'0 0.0
2014-Aug-30 10:28N 29°56' W 090°22'0 0.0
2014-Aug-30 09:22N 29°56' W 090°22'0 0.0
2014-Aug-30 08:10N 29°56' W 090°22'0 0.0
2014-Aug-30 07:22N 29°56' W 090°22'0 0.0
2014-Aug-30 06:22N 29°56' W 090°22'0 0.0
2014-Aug-30 05:31N 29°56' W 090°22'0 0.0
2014-Aug-30 03:28N 29°56' W 090°22'0 0.0
2014-Aug-30 02:31N 29°56' W 090°22'0 0.0
2014-Aug-30 01:22N 29°56' W 090°22'0 0.0
2014-Aug-30 00:16N 29°56' W 090°22'0 0.0
2014-Aug-29 22:16N 29°56' W 090°22'0 0.0
2014-Aug-29 21:31N 29°56' W 090°22'0 0.0
2014-Aug-29 20:31N 29°56' W 090°22'0 0.0
2014-Aug-29 19:31N 29°56' W 090°22'0 0.0
2014-Aug-29 09:28N 29°56' W 090°22'0 0.0
2014-Aug-28 22:27N 29°56' W 090°22'  
2014-Aug-25 11:12N 29°58' W 090°17'0 0.0
2014-Aug-25 06:12N 29°58' W 090°17'1 1.6
2014-Aug-25 05:33N 29°58' W 090°16'2 1.8
2014-Aug-25 04:31N 29°58' W 090°14'  

Dump ship's entire track history